Cambridge Bay Airport
CYCB : now visible

Aeroporto :











RITROVATECI SU...

 
LOGIN :

Iscrizione | Disclaimer

   EN    FR    IT 

 









Sommario :    VFR   VFR Marginale   IFR   IFR Intensivo   IFR Molto Intensivo
Visibilità : 
Base nubi : 
>= 8 km
>= 3000ft
5 / 8 km
1000 / 3000 ft
1500m / 5 km
500 / 1000 ft
800 / 1500m
200 / 500 ft
< 800m
< 200 ft
Simboli :   Temporali  Nebbia  Neve Forte  Precipitazioni Forti  Vento > 20 kt






- Altitudine del aeroporto : 90 ft
- Codice IATA : YCB


CYCB - Cambridge Bay

ULTIMO METAR :
  • 071500Z 04016KT 15SM FEW006 FEW180 BKN240 07/04 A2974 RMK SF1AC2CI5 SF TR SLP076

METARs OBSOLETI :
  • 071317Z 04013G22KT 15SM BKN006 BKN120 05/04 A2975 RMK SF7AC1 AC TR SLP077
  • 071300Z 03018KT 15SM BKN003 BKN120 04/03 A2974 RMK SF7AC1 AC TR VIS N LWR SLP074

TAF TAF CYCB
Valido dal 07 a 13 ore il 08 a 01 ore UTC


071238Z 0713/0801 03018KT 1SM BR BKN002
TEMPO 0713/0716 P6SM NSW SCT002 BKN120
FM071600 04015KT P6SM FEW006 SCT040
TEMPO 0716/0801 SCT006 BKN040 RMK NXT FCST BY 071900Z
FIR CZEG / America del Nord



MetMap, La meteo Aeronautica in un colpo d'occhio ! - Copyright ORBIFLY Dicembre 2007 - Disclaimer

ORBIFLY MET'MAP TEAM :

Programmazione e sviluppo : Alexandra Zaïnal
Concezione : Baudouin d'Aumeries
Aiuto per la programmazione : Marc-Olivier Méhu
Supporto tecnico e logistico : Manuel Goepfert
Aiuto per la traduzione : Arnaldo La Scala

Contatto : metmap@orbifly.com




FONTI E CREDITI :

   NOAA       Earth
Advisory